sensor_id;sensor_type;location;lat;lon;timestamp;P1;durP1;ratioP1;P2;durP2;ratioP2
1416;SDS011;703;51.162;13.574;2023-04-06T00:02:21;40.50;;;14.60;;
1416;SDS011;703;51.162;13.574;2023-04-06T00:04:47;39.77;;;12.93;;
1416;SDS011;703;51.162;13.574;2023-04-06T00:07:13;40.20;;;13.33;;
1416;SDS011;703;51.162;13.574;2023-04-06T00:09:38;41.10;;;14.53;;
1416;SDS011;703;51.162;13.574;2023-04-06T00:12:05;40.57;;;13.90;;
1416;SDS011;703;51.162;13.574;2023-04-06T00:14:31;42.80;;;14.30;;
1416;SDS011;703;51.162;13.574;2023-04-06T00:19:22;42.03;;;14.20;;
1416;SDS011;703;51.162;13.574;2023-04-06T00:21:48;40.70;;;13.73;;
1416;SDS011;703;51.162;13.574;2023-04-06T00:24:14;42.10;;;14.50;;
1416;SDS011;703;51.162;13.574;2023-04-06T00:26:40;42.87;;;15.07;;
1416;SDS011;703;51.162;13.574;2023-04-06T00:29:06;42.00;;;14.80;;
1416;SDS011;703;51.162;13.574;2023-04-06T00:31:32;41.23;;;14.47;;
1416;SDS011;703;51.162;13.574;2023-04-06T00:33:58;39.70;;;13.37;;
1416;SDS011;703;51.162;13.574;2023-04-06T00:36:23;46.17;;;14.80;;
1416;SDS011;703;51.162;13.574;2023-04-06T00:38:50;41.43;;;15.47;;
1416;SDS011;703;51.162;13.574;2023-04-06T00:41:17;43.60;;;15.53;;
1416;SDS011;703;51.162;13.574;2023-04-06T00:43:43;40.50;;;13.20;;
1416;SDS011;703;51.162;13.574;2023-04-06T00:46:09;39.67;;;14.00;;
1416;SDS011;703;51.162;13.574;2023-04-06T00:48:35;41.10;;;15.53;;
1416;SDS011;703;51.162;13.574;2023-04-06T00:51:01;40.27;;;14.50;;
1416;SDS011;703;51.162;13.574;2023-04-06T00:53:27;41.00;;;14.90;;
1416;SDS011;703;51.162;13.574;2023-04-06T00:55:52;40.13;;;14.40;;
1416;SDS011;703;51.162;13.574;2023-04-06T00:58:18;41.37;;;15.67;;
1416;SDS011;703;51.162;13.574;2023-04-06T01:00:44;44.77;;;16.23;;
1416;SDS011;703;51.162;13.574;2023-04-06T01:03:10;40.47;;;14.80;;
1416;SDS011;703;51.162;13.574;2023-04-06T01:05:36;41.77;;;15.30;;
1416;SDS011;703;51.162;13.574;2023-04-06T01:08:05;41.20;;;14.97;;
1416;SDS011;703;51.162;13.574;2023-04-06T01:10:31;40.87;;;15.27;;
1416;SDS011;703;51.162;13.574;2023-04-06T01:12:57;42.30;;;14.37;;
1416;SDS011;703;51.162;13.574;2023-04-06T01:15:23;42.83;;;15.70;;
1416;SDS011;703;51.162;13.574;2023-04-06T01:17:50;43.80;;;16.87;;
1416;SDS011;703;51.162;13.574;2023-04-06T01:20:16;42.13;;;15.90;;
1416;SDS011;703;51.162;13.574;2023-04-06T01:22:42;43.00;;;15.70;;
1416;SDS011;703;51.162;13.574;2023-04-06T01:25:08;42.80;;;15.50;;
1416;SDS011;703;51.162;13.574;2023-04-06T01:27:35;42.53;;;16.37;;
1416;SDS011;703;51.162;13.574;2023-04-06T01:30:01;43.13;;;15.93;;
1416;SDS011;703;51.162;13.574;2023-04-06T01:32:27;43.90;;;17.10;;
1416;SDS011;703;51.162;13.574;2023-04-06T01:34:53;41.40;;;15.03;;
1416;SDS011;703;51.162;13.574;2023-04-06T01:37:19;41.63;;;15.03;;
1416;SDS011;703;51.162;13.574;2023-04-06T01:39:45;40.97;;;14.37;;
1416;SDS011;703;51.162;13.574;2023-04-06T01:42:11;42.90;;;15.70;;
1416;SDS011;703;51.162;13.574;2023-04-06T01:44:37;41.93;;;15.00;;
1416;SDS011;703;51.162;13.574;2023-04-06T01:47:03;41.57;;;14.77;;
1416;SDS011;703;51.162;13.574;2023-04-06T01:49:29;43.13;;;15.23;;
1416;SDS011;703;51.162;13.574;2023-04-06T01:51:55;41.60;;;15.73;;
1416;SDS011;703;51.162;13.574;2023-04-06T01:54:21;41.67;;;14.60;;
1416;SDS011;703;51.162;13.574;2023-04-06T01:56:47;42.00;;;15.40;;
1416;SDS011;703;51.162;13.574;2023-04-06T01:59:15;40.50;;;13.80;;
1416;SDS011;703;51.162;13.574;2023-04-06T02:01:40;41.40;;;15.47;;
1416;SDS011;703;51.162;13.574;2023-04-06T02:04:06;39.97;;;13.23;;
1416;SDS011;703;51.162;13.574;2023-04-06T02:06:32;42.43;;;15.77;;
1416;SDS011;703;51.162;13.574;2023-04-06T02:08:58;40.43;;;14.27;;
1416;SDS011;703;51.162;13.574;2023-04-06T02:11:24;41.10;;;14.60;;
1416;SDS011;703;51.162;13.574;2023-04-06T02:13:50;41.60;;;14.80;;
1416;SDS011;703;51.162;13.574;2023-04-06T02:16:16;41.50;;;14.27;;
1416;SDS011;703;51.162;13.574;2023-04-06T02:18:41;40.87;;;12.90;;
1416;SDS011;703;51.162;13.574;2023-04-06T02:21:07;40.43;;;13.40;;
1416;SDS011;703;51.162;13.574;2023-04-06T02:23:34;40.27;;;13.53;;
1416;SDS011;703;51.162;13.574;2023-04-06T02:26:00;41.03;;;14.60;;
1416;SDS011;703;51.162;13.574;2023-04-06T02:28:25;41.00;;;14.43;;
1416;SDS011;703;51.162;13.574;2023-04-06T02:30:51;40.93;;;12.87;;
1416;SDS011;703;51.162;13.574;2023-04-06T02:33:17;42.20;;;14.30;;
1416;SDS011;703;51.162;13.574;2023-04-06T02:35:44;41.43;;;14.93;;
1416;SDS011;703;51.162;13.574;2023-04-06T02:38:10;42.90;;;14.60;;
1416;SDS011;703;51.162;13.574;2023-04-06T02:40:36;40.90;;;13.53;;
1416;SDS011;703;51.162;13.574;2023-04-06T02:43:02;41.23;;;13.87;;
1416;SDS011;703;51.162;13.574;2023-04-06T02:45:28;41.93;;;15.60;;
1416;SDS011;703;51.162;13.574;2023-04-06T02:47:54;40.90;;;13.87;;
1416;SDS011;703;51.162;13.574;2023-04-06T02:50:20;44.50;;;15.47;;
1416;SDS011;703;51.162;13.574;2023-04-06T02:52:46;41.37;;;13.33;;
1416;SDS011;703;51.162;13.574;2023-04-06T02:55:12;40.97;;;14.83;;
1416;SDS011;703;51.162;13.574;2023-04-06T02:57:38;40.40;;;13.90;;
1416;SDS011;703;51.162;13.574;2023-04-06T03:00:04;40.77;;;13.80;;
1416;SDS011;703;51.162;13.574;2023-04-06T03:02:30;39.77;;;12.67;;
1416;SDS011;703;51.162;13.574;2023-04-06T03:04:56;40.57;;;13.30;;
1416;SDS011;703;51.162;13.574;2023-04-06T03:07:22;39.27;;;12.63;;
1416;SDS011;703;51.162;13.574;2023-04-06T03:09:48;41.50;;;14.57;;
1416;SDS011;703;51.162;13.574;2023-04-06T03:12:13;40.00;;;12.80;;
1416;SDS011;703;51.162;13.574;2023-04-06T03:14:39;54.73;;;15.70;;
1416;SDS011;703;51.162;13.574;2023-04-06T03:17:05;42.07;;;15.23;;
1416;SDS011;703;51.162;13.574;2023-04-06T03:19:31;40.57;;;13.97;;
1416;SDS011;703;51.162;13.574;2023-04-06T03:21:57;41.37;;;14.10;;
1416;SDS011;703;51.162;13.574;2023-04-06T03:24:23;41.00;;;14.70;;
1416;SDS011;703;51.162;13.574;2023-04-06T03:26:49;42.07;;;14.43;;
1416;SDS011;703;51.162;13.574;2023-04-06T03:29:15;39.27;;;12.83;;
1416;SDS011;703;51.162;13.574;2023-04-06T03:31:41;41.80;;;12.63;;
1416;SDS011;703;51.162;13.574;2023-04-06T03:34:07;43.30;;;14.80;;
1416;SDS011;703;51.162;13.574;2023-04-06T03:36:33;39.60;;;12.60;;
1416;SDS011;703;51.162;13.574;2023-04-06T03:38:59;41.30;;;13.50;;
1416;SDS011;703;51.162;13.574;2023-04-06T03:41:25;41.23;;;13.57;;
1416;SDS011;703;51.162;13.574;2023-04-06T03:43:52;40.80;;;14.80;;
1416;SDS011;703;51.162;13.574;2023-04-06T03:46:18;41.40;;;14.77;;
1416;SDS011;703;51.162;13.574;2023-04-06T03:48:45;41.73;;;14.17;;
1416;SDS011;703;51.162;13.574;2023-04-06T03:51:10;41.40;;;14.30;;
1416;SDS011;703;51.162;13.574;2023-04-06T03:53:36;41.50;;;14.97;;
1416;SDS011;703;51.162;13.574;2023-04-06T03:56:03;42.13;;;14.77;;
1416;SDS011;703;51.162;13.574;2023-04-06T03:58:29;40.10;;;13.30;;
1416;SDS011;703;51.162;13.574;2023-04-06T04:00:55;42.60;;;14.17;;
1416;SDS011;703;51.162;13.574;2023-04-06T04:03:21;44.40;;;13.70;;
1416;SDS011;703;51.162;13.574;2023-04-06T04:05:48;40.50;;;13.63;;
1416;SDS011;703;51.162;13.574;2023-04-06T04:08:15;41.10;;;13.00;;
1416;SDS011;703;51.162;13.574;2023-04-06T04:10:40;41.40;;;13.33;;
1416;SDS011;703;51.162;13.574;2023-04-06T04:13:06;42.50;;;13.70;;
1416;SDS011;703;51.162;13.574;2023-04-06T04:15:32;41.20;;;13.83;;
1416;SDS011;703;51.162;13.574;2023-04-06T04:17:58;41.90;;;14.37;;
1416;SDS011;703;51.162;13.574;2023-04-06T04:20:24;43.57;;;14.37;;
1416;SDS011;703;51.162;13.574;2023-04-06T04:22:50;40.60;;;15.30;;
1416;SDS011;703;51.162;13.574;2023-04-06T04:25:16;41.53;;;14.10;;
1416;SDS011;703;51.162;13.574;2023-04-06T04:27:42;43.00;;;15.03;;
1416;SDS011;703;51.162;13.574;2023-04-06T04:30:07;43.00;;;14.03;;
1416;SDS011;703;51.162;13.574;2023-04-06T04:32:33;44.50;;;15.17;;
1416;SDS011;703;51.162;13.574;2023-04-06T04:34:59;41.30;;;13.90;;
1416;SDS011;703;51.162;13.574;2023-04-06T04:37:25;41.33;;;14.23;;
1416;SDS011;703;51.162;13.574;2023-04-06T04:39:51;42.20;;;14.43;;
1416;SDS011;703;51.162;13.574;2023-04-06T04:42:17;43.53;;;14.30;;
1416;SDS011;703;51.162;13.574;2023-04-06T04:44:43;42.20;;;15.30;;
1416;SDS011;703;51.162;13.574;2023-04-06T04:47:09;41.60;;;15.20;;
1416;SDS011;703;51.162;13.574;2023-04-06T04:49:35;42.33;;;14.80;;
1416;SDS011;703;51.162;13.574;2023-04-06T04:52:01;42.37;;;15.77;;
1416;SDS011;703;51.162;13.574;2023-04-06T04:54:27;42.17;;;16.40;;
1416;SDS011;703;51.162;13.574;2023-04-06T04:56:52;44.67;;;16.50;;
1416;SDS011;703;51.162;13.574;2023-04-06T04:59:18;43.73;;;16.10;;
1416;SDS011;703;51.162;13.574;2023-04-06T05:01:44;41.47;;;15.47;;
1416;SDS011;703;51.162;13.574;2023-04-06T05:04:10;41.20;;;14.07;;
1416;SDS011;703;51.162;13.574;2023-04-06T05:06:36;42.03;;;14.97;;
1416;SDS011;703;51.162;13.574;2023-04-06T05:09:02;43.20;;;13.77;;
1416;SDS011;703;51.162;13.574;2023-04-06T05:11:28;42.17;;;15.30;;
1416;SDS011;703;51.162;13.574;2023-04-06T05:13:54;40.80;;;14.20;;
1416;SDS011;703;51.162;13.574;2023-04-06T05:16:20;44.70;;;16.20;;
1416;SDS011;703;51.162;13.574;2023-04-06T05:18:47;40.60;;;14.13;;
1416;SDS011;703;51.162;13.574;2023-04-06T05:21:13;41.97;;;15.43;;
1416;SDS011;703;51.162;13.574;2023-04-06T05:23:39;41.37;;;13.70;;
1416;SDS011;703;51.162;13.574;2023-04-06T05:26:05;42.00;;;15.90;;
1416;SDS011;703;51.162;13.574;2023-04-06T05:28:32;42.07;;;15.73;;
1416;SDS011;703;51.162;13.574;2023-04-06T05:30:57;41.50;;;15.33;;
1416;SDS011;703;51.162;13.574;2023-04-06T05:33:23;42.07;;;17.03;;
1416;SDS011;703;51.162;13.574;2023-04-06T05:35:50;44.03;;;15.60;;
1416;SDS011;703;51.162;13.574;2023-04-06T05:38:16;44.17;;;17.03;;
1416;SDS011;703;51.162;13.574;2023-04-06T05:40:41;43.07;;;13.93;;
1416;SDS011;703;51.162;13.574;2023-04-06T05:43:07;43.40;;;19.20;;
1416;SDS011;703;51.162;13.574;2023-04-06T05:45:33;42.20;;;16.70;;
1416;SDS011;703;51.162;13.574;2023-04-06T05:48:00;40.90;;;15.80;;
1416;SDS011;703;51.162;13.574;2023-04-06T05:50:26;42.33;;;17.10;;
1416;SDS011;703;51.162;13.574;2023-04-06T05:52:52;41.17;;;16.33;;
1416;SDS011;703;51.162;13.574;2023-04-06T05:55:18;40.07;;;14.40;;
1416;SDS011;703;51.162;13.574;2023-04-06T05:57:44;40.87;;;15.47;;
1416;SDS011;703;51.162;13.574;2023-04-06T06:00:10;42.10;;;15.60;;
1416;SDS011;703;51.162;13.574;2023-04-06T06:02:36;40.50;;;14.77;;
1416;SDS011;703;51.162;13.574;2023-04-06T06:05:02;41.43;;;15.07;;
1416;SDS011;703;51.162;13.574;2023-04-06T06:07:28;44.70;;;16.70;;
1416;SDS011;703;51.162;13.574;2023-04-06T06:09:57;41.03;;;15.50;;
1416;SDS011;703;51.162;13.574;2023-04-06T06:12:23;41.87;;;16.13;;
1416;SDS011;703;51.162;13.574;2023-04-06T06:14:49;40.23;;;14.97;;
1416;SDS011;703;51.162;13.574;2023-04-06T06:17:15;41.83;;;16.80;;
1416;SDS011;703;51.162;13.574;2023-04-06T06:19:41;40.20;;;14.70;;
1416;SDS011;703;51.162;13.574;2023-04-06T06:22:07;41.73;;;15.43;;
1416;SDS011;703;51.162;13.574;2023-04-06T06:24:33;42.07;;;15.07;;
1416;SDS011;703;51.162;13.574;2023-04-06T06:26:59;40.80;;;15.90;;
1416;SDS011;703;51.162;13.574;2023-04-06T06:29:25;40.87;;;15.53;;
1416;SDS011;703;51.162;13.574;2023-04-06T06:31:51;40.33;;;15.67;;
1416;SDS011;703;51.162;13.574;2023-04-06T06:34:16;40.60;;;16.27;;
1416;SDS011;703;51.162;13.574;2023-04-06T06:36:42;39.67;;;14.60;;
1416;SDS011;703;51.162;13.574;2023-04-06T06:39:08;43.70;;;14.50;;
1416;SDS011;703;51.162;13.574;2023-04-06T06:41:33;43.30;;;16.47;;
1416;SDS011;703;51.162;13.574;2023-04-06T06:44:00;41.07;;;15.33;;
1416;SDS011;703;51.162;13.574;2023-04-06T06:46:26;39.40;;;14.80;;
1416;SDS011;703;51.162;13.574;2023-04-06T06:48:52;39.90;;;15.67;;
1416;SDS011;703;51.162;13.574;2023-04-06T06:51:19;43.03;;;14.20;;
1416;SDS011;703;51.162;13.574;2023-04-06T06:53:45;39.80;;;14.87;;
1416;SDS011;703;51.162;13.574;2023-04-06T06:56:10;40.00;;;16.00;;
1416;SDS011;703;51.162;13.574;2023-04-06T06:58:37;38.67;;;15.03;;
1416;SDS011;703;51.162;13.574;2023-04-06T07:01:03;39.40;;;15.43;;
1416;SDS011;703;51.162;13.574;2023-04-06T07:03:30;40.47;;;16.00;;
1416;SDS011;703;51.162;13.574;2023-04-06T07:05:56;42.07;;;15.80;;
1416;SDS011;703;51.162;13.574;2023-04-06T07:08:22;39.90;;;14.70;;
1416;SDS011;703;51.162;13.574;2023-04-06T07:10:49;39.90;;;15.97;;
1416;SDS011;703;51.162;13.574;2023-04-06T07:13:17;39.90;;;15.50;;
1416;SDS011;703;51.162;13.574;2023-04-06T07:15:46;39.70;;;16.60;;
1416;SDS011;703;51.162;13.574;2023-04-06T07:18:12;41.13;;;17.07;;
1416;SDS011;703;51.162;13.574;2023-04-06T07:20:38;40.10;;;16.50;;
1416;SDS011;703;51.162;13.574;2023-04-06T07:23:04;39.00;;;14.50;;
1416;SDS011;703;51.162;13.574;2023-04-06T07:25:30;40.50;;;16.50;;
1416;SDS011;703;51.162;13.574;2023-04-06T07:27:56;39.87;;;16.20;;
1416;SDS011;703;51.162;13.574;2023-04-06T07:30:22;38.47;;;15.10;;
1416;SDS011;703;51.162;13.574;2023-04-06T07:32:51;37.87;;;14.40;;
1416;SDS011;703;51.162;13.574;2023-04-06T07:35:16;40.93;;;16.50;;
1416;SDS011;703;51.162;13.574;2023-04-06T07:37:42;39.40;;;16.67;;
1416;SDS011;703;51.162;13.574;2023-04-06T07:40:08;38.57;;;15.30;;
1416;SDS011;703;51.162;13.574;2023-04-06T07:42:34;38.23;;;15.80;;
1416;SDS011;703;51.162;13.574;2023-04-06T07:45:00;38.93;;;15.50;;
1416;SDS011;703;51.162;13.574;2023-04-06T07:47:26;37.40;;;14.60;;
1416;SDS011;703;51.162;13.574;2023-04-06T07:49:54;39.77;;;15.77;;
1416;SDS011;703;51.162;13.574;2023-04-06T07:52:20;38.00;;;15.33;;
1416;SDS011;703;51.162;13.574;2023-04-06T07:54:46;38.20;;;15.20;;
1416;SDS011;703;51.162;13.574;2023-04-06T07:57:14;37.30;;;15.23;;
1416;SDS011;703;51.162;13.574;2023-04-06T07:59:40;38.00;;;14.07;;
1416;SDS011;703;51.162;13.574;2023-04-06T08:02:06;37.27;;;14.80;;
1416;SDS011;703;51.162;13.574;2023-04-06T08:04:32;36.47;;;13.60;;
1416;SDS011;703;51.162;13.574;2023-04-06T08:06:58;39.10;;;14.73;;
1416;SDS011;703;51.162;13.574;2023-04-06T08:09:24;35.93;;;13.43;;
1416;SDS011;703;51.162;13.574;2023-04-06T08:11:50;37.93;;;14.63;;
1416;SDS011;703;51.162;13.574;2023-04-06T08:14:16;36.77;;;13.17;;
1416;SDS011;703;51.162;13.574;2023-04-06T08:16:42;35.83;;;13.53;;
1416;SDS011;703;51.162;13.574;2023-04-06T08:19:08;35.67;;;14.60;;
1416;SDS011;703;51.162;13.574;2023-04-06T08:21:37;35.60;;;12.53;;
1416;SDS011;703;51.162;13.574;2023-04-06T08:24:02;36.30;;;13.93;;
1416;SDS011;703;51.162;13.574;2023-04-06T08:26:29;37.63;;;14.90;;
1416;SDS011;703;51.162;13.574;2023-04-06T08:28:55;37.47;;;14.17;;
1416;SDS011;703;51.162;13.574;2023-04-06T08:31:20;38.60;;;14.67;;
1416;SDS011;703;51.162;13.574;2023-04-06T08:33:46;36.57;;;14.90;;
1416;SDS011;703;51.162;13.574;2023-04-06T08:36:12;35.93;;;14.43;;
1416;SDS011;703;51.162;13.574;2023-04-06T08:38:40;35.93;;;13.53;;
1416;SDS011;703;51.162;13.574;2023-04-06T08:41:12;39.50;;;19.13;;
1416;SDS011;703;51.162;13.574;2023-04-06T08:43:43;38.80;;;16.03;;
1416;SDS011;703;51.162;13.574;2023-04-06T08:46:13;37.53;;;12.37;;
1416;SDS011;703;51.162;13.574;2023-04-06T08:48:40;34.30;;;11.40;;
1416;SDS011;703;51.162;13.574;2023-04-06T08:51:06;34.90;;;12.10;;
1416;SDS011;703;51.162;13.574;2023-04-06T08:53:33;34.27;;;11.73;;
1416;SDS011;703;51.162;13.574;2023-04-06T08:55:59;35.10;;;13.40;;
1416;SDS011;703;51.162;13.574;2023-04-06T08:58:26;34.50;;;12.57;;
1416;SDS011;703;51.162;13.574;2023-04-06T09:00:53;35.40;;;12.87;;
1416;SDS011;703;51.162;13.574;2023-04-06T09:03:19;35.30;;;12.70;;
1416;SDS011;703;51.162;13.574;2023-04-06T09:05:47;34.40;;;11.97;;
1416;SDS011;703;51.162;13.574;2023-04-06T09:08:13;33.87;;;10.83;;
1416;SDS011;703;51.162;13.574;2023-04-06T09:10:41;34.23;;;12.40;;
1416;SDS011;703;51.162;13.574;2023-04-06T09:13:08;33.70;;;12.20;;
1416;SDS011;703;51.162;13.574;2023-04-06T09:15:34;34.30;;;11.90;;
1416;SDS011;703;51.162;13.574;2023-04-06T09:18:00;34.83;;;12.00;;
1416;SDS011;703;51.162;13.574;2023-04-06T09:20:26;34.30;;;13.00;;
1416;SDS011;703;51.162;13.574;2023-04-06T09:22:53;35.80;;;13.47;;
1416;SDS011;703;51.162;13.574;2023-04-06T09:25:21;34.80;;;12.10;;
1416;SDS011;703;51.162;13.574;2023-04-06T09:27:58;33.90;;;12.03;;
1416;SDS011;703;51.162;13.574;2023-04-06T09:30:28;34.67;;;12.30;;
1416;SDS011;703;51.162;13.574;2023-04-06T09:32:55;34.80;;;13.70;;
1416;SDS011;703;51.162;13.574;2023-04-06T09:35:22;33.10;;;12.13;;
1416;SDS011;703;51.162;13.574;2023-04-06T09:37:49;33.63;;;13.40;;
1416;SDS011;703;51.162;13.574;2023-04-06T09:40:16;36.17;;;12.50;;
1416;SDS011;703;51.162;13.574;2023-04-06T09:42:47;33.20;;;10.77;;
1416;SDS011;703;51.162;13.574;2023-04-06T09:45:17;33.77;;;11.60;;
1416;SDS011;703;51.162;13.574;2023-04-06T09:47:44;33.37;;;11.00;;
1416;SDS011;703;51.162;13.574;2023-04-06T09:50:11;33.90;;;11.50;;
1416;SDS011;703;51.162;13.574;2023-04-06T09:52:39;36.10;;;15.03;;
1416;SDS011;703;51.162;13.574;2023-04-06T09:55:07;49.67;;;27.80;;
1416;SDS011;703;51.162;13.574;2023-04-06T10:00:22;33.87;;;13.53;;
1416;SDS011;703;51.162;13.574;2023-04-06T10:07:57;34.50;;;12.50;;
1416;SDS011;703;51.162;13.574;2023-04-06T10:10:27;33.23;;;12.30;;
1416;SDS011;703;51.162;13.574;2023-04-06T10:12:53;36.00;;;15.33;;
1416;SDS011;703;51.162;13.574;2023-04-06T10:15:20;36.40;;;13.23;;
1416;SDS011;703;51.162;13.574;2023-04-06T10:17:46;32.07;;;10.50;;
1416;SDS011;703;51.162;13.574;2023-04-06T10:20:15;34.20;;;12.40;;
1416;SDS011;703;51.162;13.574;2023-04-06T10:23:34;32.73;;;11.47;;
1416;SDS011;703;51.162;13.574;2023-04-06T10:25:58;33.20;;;11.63;;
1416;SDS011;703;51.162;13.574;2023-04-06T10:28:25;32.73;;;11.33;;
1416;SDS011;703;51.162;13.574;2023-04-06T10:30:57;33.97;;;11.17;;
1416;SDS011;703;51.162;13.574;2023-04-06T10:33:25;32.80;;;11.23;;
1416;SDS011;703;51.162;13.574;2023-04-06T10:35:51;34.27;;;11.53;;
1416;SDS011;703;51.162;13.574;2023-04-06T10:38:18;34.83;;;12.40;;
1416;SDS011;703;51.162;13.574;2023-04-06T10:40:46;33.37;;;11.23;;
1416;SDS011;703;51.162;13.574;2023-04-06T10:43:13;33.90;;;12.27;;
1416;SDS011;703;51.162;13.574;2023-04-06T10:45:57;33.20;;;12.07;;
1416;SDS011;703;51.162;13.574;2023-04-06T10:48:24;32.80;;;10.77;;
1416;SDS011;703;51.162;13.574;2023-04-06T10:51:00;33.13;;;10.60;;
1416;SDS011;703;51.162;13.574;2023-04-06T10:53:27;33.80;;;11.27;;
1416;SDS011;703;51.162;13.574;2023-04-06T10:55:54;33.93;;;12.60;;
1416;SDS011;703;51.162;13.574;2023-04-06T10:58:23;35.47;;;12.80;;
1416;SDS011;703;51.162;13.574;2023-04-06T11:00:50;34.70;;;11.77;;
1416;SDS011;703;51.162;13.574;2023-04-06T11:03:16;33.77;;;10.57;;
1416;SDS011;703;51.162;13.574;2023-04-06T11:05:46;33.90;;;12.10;;
1416;SDS011;703;51.162;13.574;2023-04-06T11:08:22;35.03;;;11.10;;
1416;SDS011;703;51.162;13.574;2023-04-06T11:10:49;35.67;;;15.80;;
1416;SDS011;703;51.162;13.574;2023-04-06T11:13:15;33.93;;;10.70;;
1416;SDS011;703;51.162;13.574;2023-04-06T11:15:41;34.00;;;10.50;;
1416;SDS011;703;51.162;13.574;2023-04-06T11:18:07;32.90;;;11.20;;
1416;SDS011;703;51.162;13.574;2023-04-06T11:20:33;34.17;;;12.23;;
1416;SDS011;703;51.162;13.574;2023-04-06T11:22:59;33.03;;;11.13;;
1416;SDS011;703;51.162;13.574;2023-04-06T11:25:26;32.37;;;10.67;;
1416;SDS011;703;51.162;13.574;2023-04-06T11:27:52;34.30;;;11.00;;
1416;SDS011;703;51.162;13.574;2023-04-06T11:30:18;33.30;;;11.47;;
1416;SDS011;703;51.162;13.574;2023-04-06T11:32:45;34.63;;;15.67;;
1416;SDS011;703;51.162;13.574;2023-04-06T11:35:23;33.83;;;13.57;;
1416;SDS011;703;51.162;13.574;2023-04-06T11:37:49;33.40;;;10.67;;
1416;SDS011;703;51.162;13.574;2023-04-06T11:40:15;32.97;;;10.90;;
1416;SDS011;703;51.162;13.574;2023-04-06T11:42:41;33.77;;;10.47;;
1416;SDS011;703;51.162;13.574;2023-04-06T11:45:07;36.90;;;11.73;;
1416;SDS011;703;51.162;13.574;2023-04-06T11:47:34;33.60;;;12.20;;
1416;SDS011;703;51.162;13.574;2023-04-06T11:50:12;33.73;;;10.40;;
1416;SDS011;703;51.162;13.574;2023-04-06T11:52:39;32.73;;;11.00;;
1416;SDS011;703;51.162;13.574;2023-04-06T11:55:12;32.70;;;11.07;;
1416;SDS011;703;51.162;13.574;2023-04-06T11:57:40;33.77;;;11.17;;
1416;SDS011;703;51.162;13.574;2023-04-06T12:00:06;33.10;;;11.30;;
1416;SDS011;703;51.162;13.574;2023-04-06T12:02:34;33.60;;;11.43;;
1416;SDS011;703;51.162;13.574;2023-04-06T12:05:01;33.40;;;11.93;;
1416;SDS011;703;51.162;13.574;2023-04-06T12:07:27;33.00;;;10.87;;
1416;SDS011;703;51.162;13.574;2023-04-06T12:09:54;32.90;;;11.00;;
1416;SDS011;703;51.162;13.574;2023-04-06T12:12:20;32.40;;;9.60;;
1416;SDS011;703;51.162;13.574;2023-04-06T12:14:46;33.33;;;10.77;;
1416;SDS011;703;51.162;13.574;2023-04-06T12:17:11;32.40;;;11.07;;
1416;SDS011;703;51.162;13.574;2023-04-06T12:19:37;32.77;;;11.23;;
1416;SDS011;703;51.162;13.574;2023-04-06T12:22:03;33.50;;;12.70;;
1416;SDS011;703;51.162;13.574;2023-04-06T12:24:29;31.80;;;10.37;;
1416;SDS011;703;51.162;13.574;2023-04-06T12:26:55;32.50;;;10.53;;
1416;SDS011;703;51.162;13.574;2023-04-06T12:29:22;32.27;;;10.67;;
1416;SDS011;703;51.162;13.574;2023-04-06T12:31:48;32.70;;;10.60;;
1416;SDS011;703;51.162;13.574;2023-04-06T12:34:13;32.93;;;11.00;;
1416;SDS011;703;51.162;13.574;2023-04-06T12:36:39;32.37;;;10.63;;
1416;SDS011;703;51.162;13.574;2023-04-06T12:39:05;32.57;;;10.80;;
1416;SDS011;703;51.162;13.574;2023-04-06T12:41:31;33.90;;;10.27;;
1416;SDS011;703;51.162;13.574;2023-04-06T12:43:57;32.27;;;10.50;;
1416;SDS011;703;51.162;13.574;2023-04-06T12:46:24;32.90;;;11.33;;
1416;SDS011;703;51.162;13.574;2023-04-06T12:48:51;33.10;;;12.17;;
1416;SDS011;703;51.162;13.574;2023-04-06T12:51:20;32.97;;;10.87;;
1416;SDS011;703;51.162;13.574;2023-04-06T12:53:46;33.40;;;11.10;;
1416;SDS011;703;51.162;13.574;2023-04-06T12:56:13;31.80;;;10.70;;
1416;SDS011;703;51.162;13.574;2023-04-06T12:58:40;32.17;;;9.00;;
1416;SDS011;703;51.162;13.574;2023-04-06T13:01:06;32.20;;;9.70;;
1416;SDS011;703;51.162;13.574;2023-04-06T13:03:33;33.70;;;13.60;;
1416;SDS011;703;51.162;13.574;2023-04-06T13:05:59;32.13;;;11.10;;
1416;SDS011;703;51.162;13.574;2023-04-06T13:08:26;32.60;;;11.57;;
1416;SDS011;703;51.162;13.574;2023-04-06T13:10:52;33.00;;;10.47;;
1416;SDS011;703;51.162;13.574;2023-04-06T13:13:21;32.43;;;9.37;;
1416;SDS011;703;51.162;13.574;2023-04-06T13:15:48;31.40;;;9.57;;
1416;SDS011;703;51.162;13.574;2023-04-06T13:18:14;34.50;;;11.07;;
1416;SDS011;703;51.162;13.574;2023-04-06T13:20:40;31.63;;;10.40;;
1416;SDS011;703;51.162;13.574;2023-04-06T13:23:07;31.73;;;9.83;;
1416;SDS011;703;51.162;13.574;2023-04-06T13:25:33;31.77;;;9.70;;
1416;SDS011;703;51.162;13.574;2023-04-06T13:27:59;31.60;;;8.83;;
1416;SDS011;703;51.162;13.574;2023-04-06T13:30:25;33.20;;;10.97;;
1416;SDS011;703;51.162;13.574;2023-04-06T13:32:51;32.07;;;11.17;;
1416;SDS011;703;51.162;13.574;2023-04-06T13:35:17;33.30;;;12.40;;
1416;SDS011;703;51.162;13.574;2023-04-06T13:37:43;33.63;;;12.17;;
1416;SDS011;703;51.162;13.574;2023-04-06T13:40:10;35.00;;;15.20;;
1416;SDS011;703;51.162;13.574;2023-04-06T13:42:36;33.67;;;13.53;;
1416;SDS011;703;51.162;13.574;2023-04-06T13:45:05;33.60;;;12.97;;
1416;SDS011;703;51.162;13.574;2023-04-06T13:47:31;35.43;;;16.23;;
1416;SDS011;703;51.162;13.574;2023-04-06T13:49:57;36.10;;;19.60;;
1416;SDS011;703;51.162;13.574;2023-04-06T13:52:23;37.37;;;20.80;;
1416;SDS011;703;51.162;13.574;2023-04-06T13:54:49;37.00;;;21.67;;
1416;SDS011;703;51.162;13.574;2023-04-06T13:57:15;38.10;;;23.37;;
1416;SDS011;703;51.162;13.574;2023-04-06T13:59:41;33.67;;;13.63;;
1416;SDS011;703;51.162;13.574;2023-04-06T14:02:08;32.80;;;11.80;;
1416;SDS011;703;51.162;13.574;2023-04-06T14:04:34;38.20;;;25.80;;
1416;SDS011;703;51.162;13.574;2023-04-06T14:07:01;36.70;;;19.10;;
1416;SDS011;703;51.162;13.574;2023-04-06T14:09:27;32.97;;;11.33;;
1416;SDS011;703;51.162;13.574;2023-04-06T14:11:53;36.30;;;19.40;;
1416;SDS011;703;51.162;13.574;2023-04-06T14:14:19;40.80;;;31.30;;
1416;SDS011;703;51.162;13.574;2023-04-06T14:16:46;40.70;;;31.83;;
1416;SDS011;703;51.162;13.574;2023-04-06T14:19:12;39.30;;;30.93;;
1416;SDS011;703;51.162;13.574;2023-04-06T14:21:43;38.43;;;29.07;;
1416;SDS011;703;51.162;13.574;2023-04-06T14:24:09;39.90;;;32.07;;
1416;SDS011;703;51.162;13.574;2023-04-06T14:26:35;37.60;;;25.43;;
1416;SDS011;703;51.162;13.574;2023-04-06T14:29:02;41.30;;;35.50;;
1416;SDS011;703;51.162;13.574;2023-04-06T14:31:29;38.80;;;28.00;;
1416;SDS011;703;51.162;13.574;2023-04-06T14:33:55;38.87;;;30.10;;
1416;SDS011;703;51.162;13.574;2023-04-06T14:36:21;39.73;;;26.40;;
1416;SDS011;703;51.162;13.574;2023-04-06T14:38:46;37.70;;;25.37;;
1416;SDS011;703;51.162;13.574;2023-04-06T14:41:16;35.97;;;21.47;;
1416;SDS011;703;51.162;13.574;2023-04-06T14:43:43;38.23;;;25.97;;
1416;SDS011;703;51.162;13.574;2023-04-06T14:46:09;39.90;;;28.70;;
1416;SDS011;703;51.162;13.574;2023-04-06T14:48:35;36.20;;;22.27;;
1416;SDS011;703;51.162;13.574;2023-04-06T14:51:01;36.57;;;23.40;;
1416;SDS011;703;51.162;13.574;2023-04-06T14:53:27;36.07;;;20.80;;
1416;SDS011;703;51.162;13.574;2023-04-06T14:55:54;34.77;;;18.40;;